Menoken, ND (58558)

5:16 AM CDT on September 05, 2015 (GMT -0500)
Country Meadows | | Change Station
CLOSE
Current Station
Personal Weather Station
Location: Menoken, ND
Elevation: 1686 ft
Nearby Weather Stations

Elev 1686 ft 46.81 °N, 100.60 °W | Updated 6 minutes ago

Fog
Fog
68.2 °F
Feels Like 68.2 °F
N
5.8
Wind Variable Wind from North

Today
High -- | Low -- °F
--% Chance of Precip.
Yesterday
High -- | Low -- °F
Precip. -- in
7:06 AM 8:14 PM
Waning Gibbous, 50% visible
Pressure 29.85 in
Visibility 0.8 miles
Clouds
Dew Point 68 °F
Humidity 99%
Rainfall 0.00 in
Snow Depth Not available.
UV Not available.
Pollen 10.60 out of 12
Air Quality Not available.
Flu Activity Not available.
SPECI KBIS 051000Z AUTO 33007KT 3/4SM R31/3000V4000FT BR VV002 21/21 A2985 RMK AO2 T02060206
Pressure 29.85 in
Visibility 0.8 miles
Clouds
Dew Point 68 °F
Humidity 99%
Rainfall 0.00 in
Snow Depth Not available.
UV Not available.
Pollen 10.60 out of 12
Air Quality Not available.
Flu Activity Not available.
SPECI KBIS 051000Z AUTO 33007KT 3/4SM R31/3000V4000FT BR VV002 21/21 A2985 RMK AO2 T02060206

10-Day Weather Forecast

×

Almanac

Astronomy

Sep. 05, 2015 Rise Set
Actual Time
Civil Twilight
Nautical Twilight
Astronomical Twilight
Moon
Length of Visible Light
Length of Day
Tomorrow will be .
, % of the Moon is Illuminated

Today's Extremes

State Highs State Lows

Community

WunderPhotos

Upload Photos

1,852,440 photos uploaded!

WunderBlogs® & News

Nearby

Air Quality

  Air Quality AQ Index Pollutant
Not available.

Snow Depth

Station Depth Elevation

Earthquake Activity

City Distance Mag. Time & Date
Minimum magnitude displayed is 2.5.

Coastal Water Temperatures

Place Temperature

Stations

Nearby Weather Stations

Station Location Temp. Windchill Dew Point Humidity Wind Precip. Elev Updated Type